Time;durP1;ratioP1;P1;durP2;ratioP2;P2;SDS_P1;SDS_P2;PMS_P1;PMS_P2;Temp;Humidity;BMP_temperature;BMP_pressure;BME280_temperature;BME280_humidity;BME280_pressure;Samples;Min_cycle;Max_cycle;Signal;HPM_P1;HPM_P2
2023/01/28 00:03:41;;;;;;;18.80;9.23;;;;;;;;;;5016929;28;20107;-73
2023/01/28 00:06:09;;;;;;;21.25;8.90;;;;;;;;;;5029373;28;20076;-73
2023/01/28 00:08:35;;;;;;;20.25;9.73;;;;;;;;;;5018518;28;20052;-73
2023/01/28 00:11:01;;;;;;;18.17;8.57;;;;;;;;;;5014968;28;20033;-74
2023/01/28 00:13:27;;;;;;;17.98;8.00;;;;;;;;;;5017862;28;20401;-73
2023/01/28 00:15:57;;;;;;;17.10;6.38;;;;;;;;;;5027047;28;20036;-74
2023/01/28 00:18:24;;;;;;;17.55;7.97;;;;;;;;;;5009015;28;20108;-73
2023/01/28 00:21:15;;;;;;;20.35;8.35;;;;;;;;;;5015758;28;20041;-73
2023/01/28 00:23:42;;;;;;;16.75;5.85;;;;;;;;;;5016073;28;20111;-72
2023/01/28 00:26:11;;;;;;;12.52;5.45;;;;;;;;;;5030373;28;20358;-73
2023/01/28 00:28:36;;;;;;;13.05;5.60;;;;;;;;;;5021744;28;20478;-73
2023/01/28 00:31:09;;;;;;;12.00;6.00;;;;;;;;;;5029888;28;20029;-73
2023/01/28 00:33:35;;;;;;;9.50;5.30;;;;;;;;;;5018557;28;20398;-72
2023/01/28 00:36:02;;;;;;;14.43;6.40;;;;;;;;;;5025024;28;20034;-74
2023/01/28 00:38:28;;;;;;;13.48;6.50;;;;;;;;;;5025723;28;20045;-73
2023/01/28 00:40:54;;;;;;;13.60;5.72;;;;;;;;;;5014426;28;20041;-73
2023/01/28 00:43:20;;;;;;;20.92;7.85;;;;;;;;;;5015422;28;20359;-73
2023/01/28 00:45:45;;;;;;;17.17;8.27;;;;;;;;;;5015139;28;20054;-73
2023/01/28 00:48:11;;;;;;;23.20;8.88;;;;;;;;;;5018198;28;20037;-73
2023/01/28 00:50:38;;;;;;;14.65;7.03;;;;;;;;;;5016905;28;20033;-73
2023/01/28 00:53:03;;;;;;;19.55;8.80;;;;;;;;;;5022352;28;20096;-73
2023/01/28 00:55:29;;;;;;;18.00;7.85;;;;;;;;;;5022500;28;20033;-73
2023/01/28 00:57:54;;;;;;;17.83;8.55;;;;;;;;;;5030144;28;20117;-75
2023/01/28 01:00:24;;;;;;;19.75;7.50;;;;;;;;;;5022247;28;20033;-73
2023/01/28 01:02:50;;;;;;;14.38;7.80;;;;;;;;;;5020135;28;20116;-73
2023/01/28 01:05:15;;;;;;;17.75;7.80;;;;;;;;;;5026386;28;20125;-73
2023/01/28 01:07:40;;;;;;;14.57;7.95;;;;;;;;;;5027797;28;20033;-73
2023/01/28 01:10:10;;;;;;;22.35;7.95;;;;;;;;;;5029718;28;20045;-73
2023/01/28 01:12:36;;;;;;;15.95;7.32;;;;;;;;;;5024531;28;20104;-73
2023/01/28 01:15:02;;;;;;;20.35;7.82;;;;;;;;;;5015442;28;20573;-74
2023/01/28 01:17:31;;;;;;;15.60;7.65;;;;;;;;;;5020563;28;20524;-73
2023/01/28 01:19:56;;;;;;;18.17;7.15;;;;;;;;;;5020201;28;20042;-73
2023/01/28 01:22:22;;;;;;;19.05;7.70;;;;;;;;;;5023320;28;20049;-73
2023/01/28 01:24:47;;;;;;;12.52;6.30;;;;;;;;;;5026065;28;20116;-73
2023/01/28 01:27:12;;;;;;;14.25;6.68;;;;;;;;;;5030343;28;20108;-73
2023/01/28 01:29:38;;;;;;;16.13;7.10;;;;;;;;;;5020576;28;20038;-72
2023/01/28 01:32:04;;;;;;;14.85;5.65;;;;;;;;;;5018498;28;20034;-73
2023/01/28 01:34:29;;;;;;;15.10;6.15;;;;;;;;;;5029520;28;20037;-73
2023/01/28 01:36:54;;;;;;;10.35;5.60;;;;;;;;;;5020427;28;20060;-72
2023/01/28 01:39:20;;;;;;;15.60;6.45;;;;;;;;;;5021781;28;20119;-73
2023/01/28 01:41:45;;;;;;;11.73;5.43;;;;;;;;;;5019060;28;20046;-72
2023/01/28 01:44:48;;;;;;;10.82;4.65;;;;;;;;;;5017629;28;20041;-73
2023/01/28 01:47:14;;;;;;;11.77;5.28;;;;;;;;;;5009586;28;20038;-73
2023/01/28 01:49:40;;;;;;;9.25;4.80;;;;;;;;;;5025727;28;20913;-73
2023/01/28 01:52:09;;;;;;;11.40;4.78;;;;;;;;;;5021294;28;20141;-73
2023/01/28 01:54:36;;;;;;;10.45;4.50;;;;;;;;;;5013342;28;20198;-73
2023/01/28 01:57:04;;;;;;;8.32;3.85;;;;;;;;;;5018794;28;20042;-73
2023/01/28 01:59:31;;;;;;;7.80;3.67;;;;;;;;;;5002210;28;20441;-73
2023/01/28 02:01:58;;;;;;;7.63;3.92;;;;;;;;;;5025041;28;20049;-73
2023/01/28 02:04:41;;;;;;;7.20;3.60;;;;;;;;;;5013589;28;20375;-73
2023/01/28 02:07:08;;;;;;;9.85;4.00;;;;;;;;;;5035398;28;20128;-72
2023/01/28 02:09:37;;;;;;;11.82;3.70;;;;;;;;;;5025497;28;20042;-73
2023/01/28 02:12:15;;;;;;;7.70;3.60;;;;;;;;;;5037512;28;20051;-73
2023/01/28 02:14:47;;;;;;;11.27;3.78;;;;;;;;;;5024691;28;20049;-73
2023/01/28 02:17:13;;;;;;;7.05;3.92;;;;;;;;;;5034872;28;20409;-73
2023/01/28 02:20:05;;;;;;;6.55;3.33;;;;;;;;;;5026892;28;20037;-73
2023/01/28 02:22:39;;;;;;;10.75;3.75;;;;;;;;;;5023686;28;20053;-73
2023/01/28 02:25:26;;;;;;;8.05;3.83;;;;;;;;;;5035016;28;20091;-74
2023/01/28 02:27:52;;;;;;;11.35;4.00;;;;;;;;;;5033438;28;20048;-73
2023/01/28 02:30:25;;;;;;;9.32;3.78;;;;;;;;;;5037756;28;20041;-73
2023/01/28 02:32:57;;;;;;;8.23;4.40;;;;;;;;;;5051928;28;20034;-73
2023/01/28 02:35:40;;;;;;;8.43;4.68;;;;;;;;;;5026135;28;20137;-73
2023/01/28 02:38:17;;;;;;;13.30;5.18;;;;;;;;;;5024849;28;20468;-73
2023/01/28 02:41:01;;;;;;;17.90;5.35;;;;;;;;;;5020311;28;20038;-74
2023/01/28 02:43:39;;;;;;;10.02;4.63;;;;;;;;;;5022185;28;20049;-73
2023/01/28 02:49:02;;;;;;;17.08;7.15;;;;;;;;;;5017872;28;20052;-73
2023/01/28 02:51:45;;;;;;;17.95;7.30;;;;;;;;;;5027940;28;20041;-73
2023/01/28 02:54:38;;;;;;;15.50;6.38;;;;;;;;;;5020864;28;20498;-74
2023/01/28 02:57:33;;;;;;;10.25;5.45;;;;;;;;;;5020019;28;20038;-73
2023/01/28 03:00:22;;;;;;;14.00;5.80;;;;;;;;;;5028474;28;20107;-73
2023/01/28 03:03:14;;;;;;;14.52;5.80;;;;;;;;;;5024696;28;20045;-73
2023/01/28 03:06:02;;;;;;;15.20;6.68;;;;;;;;;;5024555;28;20441;-73
2023/01/28 03:39:07;;;;;;;6.70;3.40;;;;;;;;;;5012483;28;19955;-73
2023/01/28 03:41:33;;;;;;;8.45;3.70;;;;;;;;;;5024065;28;20065;-73
2023/01/28 03:46:42;;;;;;;6.72;3.92;;;;;;;;;;5029600;28;20515;-73
2023/01/28 03:49:07;;;;;;;9.68;4.32;;;;;;;;;;5021526;28;20116;-73
2023/01/28 03:51:33;;;;;;;9.43;4.05;;;;;;;;;;5017309;28;20050;-73
2023/01/28 03:53:58;;;;;;;10.02;3.67;;;;;;;;;;5025663;28;20056;-73
2023/01/28 03:56:25;;;;;;;7.95;3.95;;;;;;;;;;5032933;28;20503;-73
2023/01/28 03:58:55;;;;;;;10.57;3.90;;;;;;;;;;5027483;28;20477;-73
2023/01/28 04:01:21;;;;;;;6.25;3.58;;;;;;;;;;5026958;28;20033;-72
2023/01/28 04:03:46;;;;;;;8.23;3.50;;;;;;;;;;5031534;28;20060;-72
2023/01/28 04:06:11;;;;;;;7.95;3.58;;;;;;;;;;5030715;28;20397;-73
2023/01/28 04:08:37;;;;;;;11.57;3.85;;;;;;;;;;5027489;28;20045;-72
2023/01/28 04:11:14;;;;;;;6.28;3.72;;;;;;;;;;5019621;28;20117;-72
2023/01/28 04:13:40;;;;;;;12.25;4.07;;;;;;;;;;5014578;28;20044;-72
2023/01/28 04:16:07;;;;;;;8.57;3.80;;;;;;;;;;5016530;28;20045;-72
2023/01/28 04:18:33;;;;;;;13.57;3.60;;;;;;;;;;5016983;28;20037;-71
2023/01/28 04:20:58;;;;;;;8.85;3.50;;;;;;;;;;5027982;28;20025;-72
2023/01/28 04:23:23;;;;;;;6.07;3.35;;;;;;;;;;5027702;28;20048;-72
2023/01/28 04:25:50;;;;;;;7.75;3.35;;;;;;;;;;5028236;28;20045;-72
2023/01/28 04:28:15;;;;;;;7.97;3.30;;;;;;;;;;5019328;28;20485;-73
2023/01/28 04:30:40;;;;;;;8.25;3.67;;;;;;;;;;5016881;28;20129;-74
2023/01/28 04:33:06;;;;;;;7.57;3.28;;;;;;;;;;5021580;28;20045;-73
2023/01/28 04:35:31;;;;;;;5.28;3.20;;;;;;;;;;5027993;28;20073;-73
2023/01/28 04:37:56;;;;;;;7.75;3.30;;;;;;;;;;5027088;28;20448;-73
2023/01/28 04:40:22;;;;;;;8.02;3.50;;;;;;;;;;5019024;28;20033;-73
2023/01/28 04:42:54;;;;;;;5.88;3.42;;;;;;;;;;5029886;28;20535;-73
2023/01/28 04:45:20;;;;;;;9.35;3.42;;;;;;;;;;5017730;28;20034;-73
2023/01/28 04:47:45;;;;;;;10.93;3.65;;;;;;;;;;5015726;28;20445;-72
2023/01/28 04:50:11;;;;;;;6.93;3.20;;;;;;;;;;5028671;28;20044;-73
2023/01/28 04:52:36;;;;;;;6.03;3.13;;;;;;;;;;5017508;28;20467;-73
2023/01/28 04:55:02;;;;;;;8.43;3.90;;;;;;;;;;5019916;28;20055;-73
2023/01/28 04:57:27;;;;;;;6.40;3.10;;;;;;;;;;5014986;28;20045;-73
2023/01/28 04:59:53;;;;;;;7.60;3.38;;;;;;;;;;5028138;28;20040;-73
2023/01/28 05:02:18;;;;;;;7.15;3.55;;;;;;;;;;5017474;28;20030;-73
2023/01/28 05:04:44;;;;;;;7.53;3.28;;;;;;;;;;5024149;28;20108;-72
2023/01/28 05:07:09;;;;;;;6.90;3.30;;;;;;;;;;5019328;28;20464;-74
2023/01/28 05:09:35;;;;;;;8.88;3.40;;;;;;;;;;5029087;28;20060;-73
2023/01/28 05:12:01;;;;;;;6.43;3.17;;;;;;;;;;5022337;28;20035;-73
2023/01/28 05:14:26;;;;;;;6.15;3.30;;;;;;;;;;5019932;28;20034;-73
2023/01/28 05:16:52;;;;;;;6.32;3.15;;;;;;;;;;5017990;28;20469;-73
2023/01/28 05:19:17;;;;;;;7.30;3.00;;;;;;;;;;5015000;28;20466;-74
2023/01/28 05:21:42;;;;;;;5.93;3.22;;;;;;;;;;5026236;28;20059;-73
2023/01/28 05:24:08;;;;;;;8.63;3.10;;;;;;;;;;5017543;28;20030;-72
2023/01/28 05:26:33;;;;;;;8.57;3.70;;;;;;;;;;5017117;28;20481;-73
2023/01/28 05:28:59;;;;;;;6.35;3.10;;;;;;;;;;5018209;28;20516;-73
2023/01/28 05:31:24;;;;;;;5.40;3.28;;;;;;;;;;5015588;28;20042;-73
2023/01/28 05:33:51;;;;;;;5.90;3.10;;;;;;;;;;5024693;28;20037;-73
2023/01/28 05:36:17;;;;;;;10.90;3.42;;;;;;;;;;5023074;28;20041;-73
2023/01/28 05:38:42;;;;;;;6.20;3.38;;;;;;;;;;5027320;28;20025;-73
2023/01/28 05:41:08;;;;;;;8.75;3.33;;;;;;;;;;5022208;28;20374;-73
2023/01/28 05:43:33;;;;;;;7.20;3.20;;;;;;;;;;5022745;28;20038;-73
2023/01/28 05:45:58;;;;;;;9.60;3.22;;;;;;;;;;5021358;28;20029;-74
2023/01/28 05:48:24;;;;;;;9.77;3.80;;;;;;;;;;5023926;28;20034;-73
2023/01/28 05:50:49;;;;;;;6.43;3.20;;;;;;;;;;5015966;28;20037;-73
2023/01/28 05:53:15;;;;;;;6.05;3.35;;;;;;;;;;5027090;28;20041;-74
2023/01/28 05:55:40;;;;;;;10.38;3.95;;;;;;;;;;5028028;28;20029;-73
2023/01/28 05:58:05;;;;;;;6.32;3.47;;;;;;;;;;5023026;28;20441;-75
2023/01/28 06:00:31;;;;;;;8.35;3.80;;;;;;;;;;5016726;28;20076;-74
2023/01/28 06:02:56;;;;;;;6.68;2.92;;;;;;;;;;5023134;28;20128;-73
2023/01/28 06:05:21;;;;;;;7.60;3.30;;;;;;;;;;5013182;28;20390;-73
2023/01/28 06:07:47;;;;;;;5.40;3.17;;;;;;;;;;5019395;28;20038;-73
2023/01/28 06:10:13;;;;;;;6.43;2.95;;;;;;;;;;5020794;28;20400;-74
2023/01/28 06:12:38;;;;;;;8.93;3.35;;;;;;;;;;5017452;28;20042;-73
2023/01/28 06:15:04;;;;;;;10.27;3.88;;;;;;;;;;5017016;28;20492;-73
2023/01/28 06:17:30;;;;;;;7.85;3.60;;;;;;;;;;5016541;28;20501;-73
2023/01/28 06:19:55;;;;;;;10.35;4.20;;;;;;;;;;5026654;28;20103;-73
2023/01/28 06:22:20;;;;;;;6.60;3.67;;;;;;;;;;5024367;28;21640;-73
2023/01/28 06:24:46;;;;;;;7.10;3.78;;;;;;;;;;5019180;28;20457;-73
2023/01/28 06:27:11;;;;;;;5.75;3.08;;;;;;;;;;5022767;28;20045;-73
2023/01/28 06:29:37;;;;;;;8.07;3.63;;;;;;;;;;5027248;28;20033;-72
2023/01/28 06:32:02;;;;;;;6.78;3.50;;;;;;;;;;5019147;28;20045;-73
2023/01/28 06:34:28;;;;;;;10.18;3.83;;;;;;;;;;5024131;28;20051;-73
2023/01/28 06:36:53;;;;;;;11.50;3.70;;;;;;;;;;5021719;28;20119;-73
2023/01/28 06:39:21;;;;;;;6.72;3.60;;;;;;;;;;5023719;28;20030;-73
2023/01/28 06:41:48;;;;;;;7.95;3.88;;;;;;;;;;5019248;28;20046;-72
2023/01/28 06:44:13;;;;;;;11.00;3.80;;;;;;;;;;5019127;28;20374;-74
2023/01/28 06:46:39;;;;;;;6.93;3.40;;;;;;;;;;5025469;28;20036;-73
2023/01/28 06:49:04;;;;;;;8.85;3.33;;;;;;;;;;5014001;28;20104;-74
2023/01/28 06:51:29;;;;;;;7.32;3.47;;;;;;;;;;5025337;28;20099;-74
2023/01/28 06:53:55;;;;;;;7.55;3.60;;;;;;;;;;5026801;28;20034;-73
2023/01/28 06:56:20;;;;;;;9.68;4.13;;;;;;;;;;5022530;28;20038;-73
2023/01/28 06:58:46;;;;;;;7.32;3.35;;;;;;;;;;5026580;28;20108;-73
2023/01/28 07:01:11;;;;;;;6.38;3.55;;;;;;;;;;5029755;28;20044;-73
2023/01/28 07:03:36;;;;;;;7.53;4.10;;;;;;;;;;5026671;28;20046;-74
2023/01/28 07:06:02;;;;;;;7.07;3.60;;;;;;;;;;5027303;28;20037;-74
2023/01/28 07:08:27;;;;;;;16.65;4.43;;;;;;;;;;5029744;28;20037;-74
2023/01/28 07:10:53;;;;;;;8.10;3.45;;;;;;;;;;5032079;28;20069;-73
2023/01/28 07:13:18;;;;;;;9.60;3.65;;;;;;;;;;5026897;28;20032;-74
2023/01/28 07:15:43;;;;;;;7.57;4.40;;;;;;;;;;5027095;28;20033;-73
2023/01/28 07:18:09;;;;;;;11.13;3.47;;;;;;;;;;5030794;28;20357;-74
2023/01/28 07:20:34;;;;;;;11.35;3.60;;;;;;;;;;5029226;28;20040;-73
2023/01/28 07:23:00;;;;;;;6.68;3.35;;;;;;;;;;5025441;28;20497;-74
2023/01/28 07:25:25;;;;;;;6.30;3.17;;;;;;;;;;5023692;28;20041;-73
2023/01/28 07:27:52;;;;;;;6.63;3.28;;;;;;;;;;5020100;28;20018;-73
2023/01/28 07:30:19;;;;;;;5.50;3.05;;;;;;;;;;5019510;28;20040;-73
2023/01/28 07:32:45;;;;;;;15.43;3.60;;;;;;;;;;5018459;28;20042;-74
2023/01/28 07:35:11;;;;;;;5.45;3.28;;;;;;;;;;5034818;28;20033;-73
2023/01/28 07:37:37;;;;;;;7.22;3.05;;;;;;;;;;5020315;28;20116;-72
2023/01/28 07:40:02;;;;;;;7.03;2.95;;;;;;;;;;5023367;28;20450;-73
2023/01/28 07:42:27;;;;;;;7.35;2.83;;;;;;;;;;5016011;28;20033;-73
2023/01/28 07:44:53;;;;;;;7.13;3.28;;;;;;;;;;5009375;28;20116;-73
2023/01/28 07:47:18;;;;;;;10.40;2.97;;;;;;;;;;5022557;28;20038;-73
2023/01/28 07:49:44;;;;;;;5.38;3.00;;;;;;;;;;5024245;28;20034;-73
2023/01/28 07:52:09;;;;;;;5.30;2.90;;;;;;;;;;5034512;28;20050;-76
2023/01/28 07:54:36;;;;;;;8.05;2.97;;;;;;;;;;5024273;28;20053;-73
2023/01/28 07:57:01;;;;;;;10.35;3.33;;;;;;;;;;5030340;28;20622;-73
2023/01/28 07:59:27;;;;;;;7.68;3.03;;;;;;;;;;5028423;28;20034;-73
2023/01/28 08:01:55;;;;;;;8.00;3.50;;;;;;;;;;5029338;28;20092;-73
2023/01/28 08:04:20;;;;;;;5.07;2.80;;;;;;;;;;5021264;28;20034;-73
2023/01/28 08:06:46;;;;;;;5.22;3.08;;;;;;;;;;5022211;28;20048;-72
2023/01/28 08:09:11;;;;;;;7.38;3.20;;;;;;;;;;5019356;28;20095;-73
2023/01/28 08:11:37;;;;;;;6.07;3.20;;;;;;;;;;5015418;28;20026;-74
2023/01/28 08:14:03;;;;;;;7.05;3.15;;;;;;;;;;5019792;28;20100;-73
2023/01/28 08:16:29;;;;;;;8.77;3.25;;;;;;;;;;5019477;28;20050;-73
2023/01/28 08:18:54;;;;;;;6.05;2.47;;;;;;;;;;5011137;28;20053;-74
2023/01/28 08:21:20;;;;;;;4.95;2.97;;;;;;;;;;5023343;28;20454;-73
2023/01/28 08:23:45;;;;;;;8.57;2.95;;;;;;;;;;5017748;28;20533;-73
2023/01/28 08:26:10;;;;;;;5.20;2.90;;;;;;;;;;5013776;28;20041;-73
2023/01/28 08:28:36;;;;;;;7.05;2.83;;;;;;;;;;5018834;28;20041;-73
2023/01/28 08:31:01;;;;;;;6.88;3.40;;;;;;;;;;5016872;28;20250;-73
2023/01/28 08:33:27;;;;;;;6.57;3.03;;;;;;;;;;5019956;28;20075;-74
2023/01/28 08:35:52;;;;;;;4.47;2.65;;;;;;;;;;5015834;28;20034;-73
2023/01/28 08:38:19;;;;;;;8.27;2.88;;;;;;;;;;5016913;28;20048;-74
2023/01/28 08:40:45;;;;;;;5.38;2.88;;;;;;;;;;5028055;28;20500;-73
2023/01/28 08:43:10;;;;;;;5.28;2.90;;;;;;;;;;5018677;28;20029;-73
2023/01/28 08:45:38;;;;;;;6.97;3.00;;;;;;;;;;5017788;28;20366;-73
2023/01/28 08:48:05;;;;;;;5.13;2.63;;;;;;;;;;5020832;28;20030;-73
2023/01/28 08:50:35;;;;;;;13.45;3.00;;;;;;;;;;5021878;28;20389;-75
2023/01/28 08:53:05;;;;;;;4.38;2.75;;;;;;;;;;5034161;28;20497;-73
2023/01/28 08:55:30;;;;;;;7.80;2.50;;;;;;;;;;5025560;28;20504;-73
2023/01/28 08:57:56;;;;;;;6.30;3.15;;;;;;;;;;5023969;28;20045;-73
2023/01/28 09:00:22;;;;;;;9.13;3.03;;;;;;;;;;5018736;28;20043;-73
2023/01/28 09:02:51;;;;;;;3.38;2.25;;;;;;;;;;5019466;28;20044;-74
2023/01/28 09:05:18;;;;;;;5.93;2.63;;;;;;;;;;5023594;28;20045;-73
2023/01/28 09:07:43;;;;;;;5.70;2.97;;;;;;;;;;5021461;28;20474;-74
2023/01/28 09:10:09;;;;;;;8.98;3.10;;;;;;;;;;5020129;28;20028;-73
2023/01/28 09:12:35;;;;;;;6.57;2.40;;;;;;;;;;5009401;28;20490;-74
2023/01/28 09:15:00;;;;;;;4.03;2.47;;;;;;;;;;5019853;28;20041;-74
2023/01/28 09:17:26;;;;;;;5.55;2.42;;;;;;;;;;5019665;28;20428;-73
2023/01/28 09:19:51;;;;;;;4.85;2.70;;;;;;;;;;5020637;28;20037;-73
2023/01/28 09:22:17;;;;;;;6.10;3.50;;;;;;;;;;5029816;28;20033;-73
2023/01/28 09:24:42;;;;;;;5.93;3.72;;;;;;;;;;5014234;28;20239;-73
2023/01/28 09:27:09;;;;;;;7.45;3.75;;;;;;;;;;5013779;28;20054;-73
2023/01/28 09:29:36;;;;;;;6.82;3.97;;;;;;;;;;5017947;28;20038;-75
2023/01/28 09:32:01;;;;;;;9.98;4.07;;;;;;;;;;5020659;28;20036;-73
2023/01/28 09:34:27;;;;;;;11.80;4.50;;;;;;;;;;5020246;28;20058;-73
2023/01/28 09:36:52;;;;;;;9.57;4.47;;;;;;;;;;5015922;28;20077;-73
2023/01/28 09:39:17;;;;;;;8.02;4.70;;;;;;;;;;5020481;28;20040;-73
2023/01/28 09:41:49;;;;;;;12.93;5.25;;;;;;;;;;5026879;28;20037;-73
2023/01/28 09:44:29;;;;;;;6.88;2.85;;;;;;;;;;5021071;28;20044;-73
2023/01/28 09:47:00;;;;;;;10.15;3.38;;;;;;;;;;5020294;28;20041;-73
2023/01/28 09:49:41;;;;;;;7.03;3.40;;;;;;;;;;5002236;28;20038;-73
2023/01/28 09:52:12;;;;;;;5.85;2.88;;;;;;;;;;5002546;28;20049;-74
2023/01/28 09:54:42;;;;;;;4.00;2.35;;;;;;;;;;5024575;28;20038;-74
2023/01/28 09:57:18;;;;;;;4.82;2.38;;;;;;;;;;5018919;28;20363;-73
2023/01/28 09:59:44;;;;;;;6.13;2.90;;;;;;;;;;5003045;28;20420;-73
2023/01/28 10:02:37;;;;;;;5.13;2.45;;;;;;;;;;5026629;28;20030;-73
2023/01/28 10:05:27;;;;;;;9.85;3.25;;;;;;;;;;5022440;28;20508;-73
2023/01/28 10:08:05;;;;;;;5.25;2.38;;;;;;;;;;5020709;28;20076;-73
2023/01/28 10:10:47;;;;;;;6.03;3.45;;;;;;;;;;5022706;28;20034;-73
2023/01/28 10:13:52;;;;;;;4.65;2.25;;;;;;;;;;5034335;28;20124;-73
2023/01/28 10:16:29;;;;;;;10.85;5.28;;;;;;;;;;5017918;28;20489;-73
2023/01/28 10:19:26;;;;;;;7.75;4.35;;;;;;;;;;5025135;28;20043;-73
2023/01/28 10:22:00;;;;;;;11.55;5.00;;;;;;;;;;5010885;28;20049;-73
2023/01/28 10:24:35;;;;;;;11.52;5.63;;;;;;;;;;5022545;28;20568;-73
2023/01/28 10:27:02;;;;;;;14.13;7.05;;;;;;;;;;5030940;28;20045;-74
2023/01/28 10:29:32;;;;;;;15.65;7.18;;;;;;;;;;5030037;28;20110;-73
2023/01/28 10:32:03;;;;;;;17.77;7.50;;;;;;;;;;5045494;28;20021;-73
2023/01/28 10:34:29;;;;;;;15.40;6.97;;;;;;;;;;5028440;28;20397;-73
2023/01/28 10:36:56;;;;;;;20.00;7.72;;;;;;;;;;5036455;28;20033;-73
2023/01/28 10:39:23;;;;;;;17.58;8.77;;;;;;;;;;5032809;28;20022;-75
2023/01/28 10:41:49;;;;;;;16.48;8.27;;;;;;;;;;5034388;28;20033;-73
2023/01/28 10:44:24;;;;;;;15.48;7.05;;;;;;;;;;5029747;28;20025;-73
2023/01/28 10:46:50;;;;;;;16.02;8.20;;;;;;;;;;5036349;28;20092;-73
2023/01/28 10:49:24;;;;;;;14.52;7.72;;;;;;;;;;5023016;28;20544;-74
2023/01/28 10:51:49;;;;;;;15.65;7.53;;;;;;;;;;5022772;28;20052;-73
2023/01/28 10:54:26;;;;;;;13.18;6.55;;;;;;;;;;5027036;28;20120;-73
2023/01/28 10:57:03;;;;;;;11.15;6.00;;;;;;;;;;5026247;28;20034;-73
2023/01/28 10:59:30;;;;;;;9.25;5.57;;;;;;;;;;5023887;28;20498;-73
2023/01/28 11:01:58;;;;;;;12.32;4.60;;;;;;;;;;5022402;28;20033;-73
2023/01/28 11:04:31;;;;;;;7.28;3.72;;;;;;;;;;5018558;28;20112;-73
2023/01/28 11:07:01;;;;;;;24.70;10.18;;;;;;;;;;5019804;28;20069;-73
2023/01/28 11:09:30;;;;;;;24.50;10.52;;;;;;;;;;5017912;28;20066;-74
2023/01/28 11:11:56;;;;;;;26.20;10.82;;;;;;;;;;5028448;28;20048;-74
2023/01/28 11:14:25;;;;;;;19.50;8.55;;;;;;;;;;5020784;28;20041;-74
2023/01/28 11:16:52;;;;;;;16.40;7.15;;;;;;;;;;5023523;28;20049;-73
2023/01/28 11:19:20;;;;;;;23.20;8.70;;;;;;;;;;5031116;28;20405;-74
2023/01/28 11:21:53;;;;;;;29.40;11.68;;;;;;;;;;5019184;28;20042;-74
2023/01/28 11:24:21;;;;;;;20.30;9.43;;;;;;;;;;5024606;28;20041;-74
2023/01/28 11:26:48;;;;;;;24.10;8.73;;;;;;;;;;5024152;28;20497;-74
2023/01/28 11:29:21;;;;;;;20.88;7.25;;;;;;;;;;5020369;28;20068;-74
2023/01/28 11:31:46;;;;;;;15.75;7.20;;;;;;;;;;5009027;28;20042;-74
2023/01/28 11:34:15;;;;;;;15.75;7.25;;;;;;;;;;5020794;28;20045;-73
2023/01/28 11:36:49;;;;;;;19.20;8.05;;;;;;;;;;5014779;28;20038;-74
2023/01/28 11:39:27;;;;;;;15.10;6.88;;;;;;;;;;5018300;28;20041;-74
2023/01/28 11:41:52;;;;;;;11.85;5.90;;;;;;;;;;5019880;28;20033;-74
2023/01/28 11:44:23;;;;;;;12.98;6.35;;;;;;;;;;5031841;28;20041;-74
2023/01/28 11:46:57;;;;;;;23.55;10.82;;;;;;;;;;5021639;28;20033;-74
2023/01/28 11:49:44;;;;;;;27.48;12.82;;;;;;;;;;5028697;28;20045;-74
2023/01/28 11:52:34;;;;;;;16.58;6.72;;;;;;;;;;5017073;28;20053;-74
2023/01/28 11:55:02;;;;;;;20.60;9.27;;;;;;;;;;5022548;28;20034;-74
2023/01/28 11:57:55;;;;;;;17.27;8.88;;;;;;;;;;5017439;28;20041;-74
2023/01/28 12:00:45;;;;;;;9.35;4.22;;;;;;;;;;5007857;28;20061;-74
2023/01/28 12:03:23;;;;;;;9.63;3.55;;;;;;;;;;5022861;28;20041;-73
2023/01/28 12:06:15;;;;;;;10.57;5.32;;;;;;;;;;5030730;28;20045;-73
2023/01/28 12:09:19;;;;;;;14.85;7.43;;;;;;;;;;4996001;28;20093;-73
2023/01/28 12:12:13;;;;;;;15.57;7.63;;;;;;;;;;5041515;28;20072;-74
2023/01/28 12:15:00;;;;;;;8.35;4.10;;;;;;;;;;5014706;28;20039;-73
2023/01/28 12:17:57;;;;;;;13.90;5.38;;;;;;;;;;5017889;28;20525;-75
2023/01/28 12:20:44;;;;;;;9.80;4.30;;;;;;;;;;5019991;28;20087;-74
2023/01/28 12:23:18;;;;;;;11.20;5.00;;;;;;;;;;5029364;28;20041;-74
2023/01/28 12:26:07;;;;;;;12.63;6.15;;;;;;;;;;5042086;28;20117;-73
2023/01/28 12:28:56;;;;;;;13.80;6.63;;;;;;;;;;5026887;28;20042;-73
2023/01/28 12:31:34;;;;;;;13.82;7.03;;;;;;;;;;5025548;28;20021;-74
2023/01/28 12:34:24;;;;;;;12.70;6.35;;;;;;;;;;5032959;28;20041;-73
2023/01/28 12:36:55;;;;;;;12.48;6.07;;;;;;;;;;5016889;28;20029;-73
2023/01/28 12:39:58;;;;;;;11.73;5.75;;;;;;;;;;5020561;28;20064;-73
2023/01/28 12:42:36;;;;;;;7.88;4.00;;;;;;;;;;5021242;28;20025;-74
2023/01/28 12:45:32;;;;;;;9.18;4.95;;;;;;;;;;5009348;28;20037;-73
2023/01/28 12:48:05;;;;;;;9.35;4.13;;;;;;;;;;5024557;28;20048;-73
2023/01/28 12:50:35;;;;;;;5.40;3.33;;;;;;;;;;5020073;28;20044;-73
2023/01/28 12:53:08;;;;;;;10.25;3.55;;;;;;;;;;5035780;28;20038;-73
2023/01/28 12:56:00;;;;;;;7.45;3.33;;;;;;;;;;5017954;28;20049;-73
2023/01/28 12:58:41;;;;;;;7.72;2.95;;;;;;;;;;5003235;28;20113;-73
2023/01/28 13:01:11;;;;;;;5.72;2.95;;;;;;;;;;5014979;28;20485;-75
2023/01/28 13:03:52;;;;;;;5.15;3.38;;;;;;;;;;5018271;28;20068;-73
2023/01/28 13:06:31;;;;;;;7.30;3.22;;;;;;;;;;5016231;28;20037;-73
2023/01/28 13:09:02;;;;;;;9.82;5.43;;;;;;;;;;5014999;28;20018;-73
2023/01/28 13:11:34;;;;;;;8.25;5.05;;;;;;;;;;5015808;28;20052;-74
2023/01/28 13:14:01;;;;;;;10.50;4.97;;;;;;;;;;5000523;28;20466;-73
2023/01/28 13:16:26;;;;;;;7.53;4.15;;;;;;;;;;5013642;28;20040;-74
2023/01/28 13:18:52;;;;;;;8.77;4.53;;;;;;;;;;5020196;28;20034;-73
2023/01/28 13:21:23;;;;;;;19.67;6.65;;;;;;;;;;5014940;28;20029;-73
2023/01/28 13:24:01;;;;;;;14.52;6.78;;;;;;;;;;5013051;28;20511;-73
2023/01/28 13:26:27;;;;;;;13.90;6.97;;;;;;;;;;5014606;28;20125;-73
2023/01/28 13:28:53;;;;;;;10.25;4.97;;;;;;;;;;5013312;28;20460;-73
2023/01/28 13:31:22;;;;;;;7.53;4.55;;;;;;;;;;5037794;28;20097;-73
2023/01/28 13:34:00;;;;;;;13.88;5.78;;;;;;;;;;5012269;28;20030;-74
2023/01/28 13:36:44;;;;;;;10.32;5.53;;;;;;;;;;5007685;28;20057;-74
2023/01/28 13:39:13;;;;;;;18.95;8.02;;;;;;;;;;5014237;28;20042;-73
2023/01/28 13:41:43;;;;;;;22.10;8.80;;;;;;;;;;5013567;28;20038;-73
2023/01/28 13:44:24;;;;;;;13.52;6.60;;;;;;;;;;5012993;28;20030;-74
2023/01/28 13:46:51;;;;;;;18.42;7.55;;;;;;;;;;5015936;28;20037;-74
2023/01/28 13:49:26;;;;;;;17.02;8.20;;;;;;;;;;5012952;28;20034;-74
2023/01/28 13:51:59;;;;;;;12.48;5.40;;;;;;;;;;5025721;28;20049;-73
2023/01/28 13:54:27;;;;;;;8.13;4.28;;;;;;;;;;5021070;28;20137;-73
2023/01/28 13:57:25;;;;;;;8.20;3.55;;;;;;;;;;5016994;28;20069;-73
2023/01/28 13:59:59;;;;;;;6.78;3.60;;;;;;;;;;5021378;28;20040;-74
2023/01/28 14:02:27;;;;;;;9.15;3.92;;;;;;;;;;5020406;28;20030;-73
2023/01/28 14:05:00;;;;;;;9.43;3.08;;;;;;;;;;5026516;28;20033;-73
2023/01/28 14:07:53;;;;;;;7.40;3.10;;;;;;;;;;5015191;28;20052;-74
2023/01/28 14:10:21;;;;;;;6.85;2.95;;;;;;;;;;5013413;28;20049;-73
2023/01/28 14:13:08;;;;;;;12.13;5.80;;;;;;;;;;5021700;28;20045;-73
2023/01/28 14:15:50;;;;;;;5.25;2.97;;;;;;;;;;5018780;28;20062;-74
2023/01/28 14:18:37;;;;;;;5.32;3.67;;;;;;;;;;5017690;28;20089;-74
2023/01/28 14:21:10;;;;;;;6.05;3.15;;;;;;;;;;5014975;28;20026;-73
2023/01/28 14:23:36;;;;;;;10.13;4.70;;;;;;;;;;5018754;28;20044;-75
2023/01/28 14:26:20;;;;;;;5.55;2.50;;;;;;;;;;5013278;28;20533;-74
2023/01/28 14:29:09;;;;;;;3.70;2.20;;;;;;;;;;5030888;28;20049;-73
2023/01/28 14:31:38;;;;;;;4.80;2.40;;;;;;;;;;5019540;28;20069;-74
2023/01/28 14:34:05;;;;;;;4.32;2.15;;;;;;;;;;5014259;28;20045;-73
2023/01/28 14:36:35;;;;;;;5.63;2.47;;;;;;;;;;5024927;28;20084;-75
2023/01/28 14:39:01;;;;;;;6.20;2.50;;;;;;;;;;5026370;28;20474;-73
2023/01/28 14:41:27;;;;;;;7.10;2.97;;;;;;;;;;5022735;28;20044;-73
2023/01/28 14:43:54;;;;;;;4.65;2.50;;;;;;;;;;5018472;28;20041;-73
2023/01/28 14:46:57;;;;;;;6.97;2.58;;;;;;;;;;5017176;28;20042;-73
2023/01/28 14:49:55;;;;;;;6.73;2.50;;;;;;;;;;4994546;28;20053;-73
2023/01/28 14:52:33;;;;;;;4.57;2.08;;;;;;;;;;4985209;28;20517;-73
2023/01/28 14:55:08;;;;;;;3.72;2.20;;;;;;;;;;5024133;28;20132;-73
2023/01/28 14:57:40;;;;;;;7.28;2.38;;;;;;;;;;5025429;28;20092;-74
2023/01/28 15:00:17;;;;;;;4.07;1.90;;;;;;;;;;5020813;28;20116;-74
2023/01/28 15:02:43;;;;;;;4.75;1.80;;;;;;;;;;5020259;28;20041;-73
2023/01/28 15:05:13;;;;;;;4.43;1.80;;;;;;;;;;5023177;28;20037;-74
2023/01/28 15:07:43;;;;;;;6.00;1.98;;;;;;;;;;5037444;28;20092;-73
2023/01/28 15:10:31;;;;;;;4.28;2.22;;;;;;;;;;5018888;28;20485;-74
2023/01/28 15:13:26;;;;;;;5.60;1.95;;;;;;;;;;5005218;28;20041;-73
2023/01/28 15:15:56;;;;;;;6.28;1.70;;;;;;;;;;5018769;28;20524;-73
2023/01/28 15:18:30;;;;;;;3.83;1.50;;;;;;;;;;5025610;28;20555;-74
2023/01/28 15:20:55;;;;;;;4.18;1.83;;;;;;;;;;5025519;28;20038;-74
2023/01/28 15:23:35;;;;;;;4.57;1.65;;;;;;;;;;5032619;28;20041;-74
2023/01/28 15:26:06;;;;;;;3.65;1.70;;;;;;;;;;5022667;28;20041;-74
2023/01/28 15:28:33;;;;;;;4.38;1.90;;;;;;;;;;5039947;28;20041;-73
2023/01/28 15:30:59;;;;;;;4.18;2.10;;;;;;;;;;5027582;28;20072;-73
2023/01/28 15:33:24;;;;;;;4.88;1.60;;;;;;;;;;5024589;28;20046;-73
2023/01/28 15:35:54;;;;;;;4.55;1.70;;;;;;;;;;5020840;28;20116;-74
2023/01/28 15:38:21;;;;;;;3.58;1.75;;;;;;;;;;5026002;28;20381;-74